Portada
METAR-TAF:

METAR-TAF

Aeropuertos :

Upington, Sudáfrica

latitud: 28-24S, longitud: 021-16E, altitud: 839 m

Observación

El informe se hizo hace 1 hora y 30 minutos, a las 13:00 UTC
Viento 10 kt del oeste-suroeste
Temperatura 34°C
Humedad 11%
Presión 1017 hPa
Visibilidad 10 km o más
sin nubes por debajo de 1500 m y sin presencia de cumulonimbus.

METAR: FAUP 251300Z 25010KT CAVOK 34/M00 Q1017 NOSIG

Hora: 16:30 (14:30 UTC)

Pronóstico

El informe se hizo hace 4 horas y 30 minutos, a las 10:00 UTC
Pronóstico válido del 25 a las 12 UTC al 26 a las 12 UTC
Viento 8 kt del suroeste
Visibilidad 10 km o más
sin nubes por debajo de 1500 m y sin presencia de cumulonimbus.
Evolucionando progresivamente
del 26 a las 00 UTC al 26 a las 02 UTC
Viento 3 kt con dirección variable

TAF: FAUP 251000Z 2512/2612 22008KT CAVOK TX34/2513Z TN13/2605Z BECMG 2600/2602 VRB03KT

Observaciones y pronósticos meteorológicos de más de 4000 aeropuertos (mensajes METAR y TAF).

Los puntos amarillos y rojos representan las estaciones disponibles.

Ponga el ratón en el punto deseado para ver el nombre de la estación.

Haga clic para ver las observaciones y los pronósticos meteorológicos.

Para cambiar el mapa : haga clic en los botones verdes con una cruz de color negro para hacer un zoom, en el botón verde con un guión para alejar o en las flechas verdes para mapas adyacentes.


METAR-TAF: